METAR Data
IDs: Format: Raw Decoded Include TAF

Data at: 1425 UTC 21 Apr 2021

METAR for:KOTM (Ottumwa Industrial, IA, US)
Text:KOTM 211353Z AUTO 31005KT 10SM FEW050 BKN065 03/M06 A3018 RMK AO2 SLP225 T00281056 $
Temperature: 2.8°C ( 37°F)
Dewpoint: -5.6°C ( 22°F) [RH = 54%]
Pressure (altimeter):30.18 inches Hg (1022.1 mb) [Sea level pressure: 1022.5 mb]
Winds:from the NW (310 degrees) at 6 MPH (5 knots; 2.6 m/s)
Visibility:10 or more sm (16+ km)
Ceiling:6500 feet AGL
Clouds: few clouds at 5000 feet AGL, broken clouds at 6500 feet AGL
QC Flag:automated observation with no human augmentation; SOME DATA ABOVE MAY BE INACCURATE!!!"$" is an indication the sensor requires maintenance.